createdAt,value
2019-01-10T00:00:23.636Z,97613.88
2019-01-10T00:02:53.897Z,97618.92
2019-01-10T00:05:22.536Z,97621.32
2019-01-10T00:07:51.186Z,97625.34
2019-01-10T00:10:19.999Z,97624.78
2019-01-10T00:12:48.759Z,97630.73
2019-01-10T00:15:17.591Z,97632.48
2019-01-10T00:17:46.291Z,97632.50
2019-01-10T00:20:15.015Z,97630.60
2019-01-10T00:22:43.675Z,97628.53
2019-01-10T00:25:12.711Z,97635.50
2019-01-10T00:27:41.434Z,97636.25
2019-01-10T00:30:11.618Z,97637.59
2019-01-10T00:32:40.251Z,97645.92
2019-01-10T00:35:09.215Z,97642.45
2019-01-10T00:37:37.862Z,97642.66
2019-01-10T00:40:07.378Z,97652.03
2019-01-10T00:42:36.338Z,97647.47
2019-01-10T00:45:05.988Z,97660.31
2019-01-10T00:47:34.644Z,97659.30
2019-01-10T00:50:03.302Z,97658.78
2019-01-10T00:52:31.954Z,97658.22
2019-01-10T00:55:00.586Z,97670.50
2019-01-10T00:57:29.218Z,97669.74
2019-01-10T00:59:57.881Z,97671.84
2019-01-10T01:02:26.520Z,97676.89
2019-01-10T01:04:55.163Z,97684.89
2019-01-10T01:07:23.818Z,97682.78
2019-01-10T01:09:52.488Z,97684.14
2019-01-10T01:12:21.127Z,97684.62
2019-01-10T01:14:50.210Z,97688.09
2019-01-10T01:17:18.847Z,97692.13
2019-01-10T01:19:47.483Z,97696.40
2019-01-10T01:22:16.137Z,97698.25
2019-01-10T01:24:44.771Z,97695.83
2019-01-10T01:27:13.423Z,97699.87
2019-01-10T01:29:42.091Z,97704.68
2019-01-10T01:32:10.727Z,97699.34
2019-01-10T01:34:39.351Z,97703.36
2019-01-10T01:37:08.003Z,97706.00
2019-01-10T01:39:36.639Z,97699.06
2019-01-10T01:42:05.338Z,97696.59
2019-01-10T01:44:33.985Z,97702.22
2019-01-10T01:47:02.613Z,97700.02
2019-01-10T01:49:32.376Z,97703.48
2019-01-10T01:52:01.014Z,97698.62
2019-01-10T01:54:29.719Z,97705.61
2019-01-10T01:56:58.362Z,97712.00
2019-01-10T01:59:27.016Z,97711.77
2019-01-10T02:01:55.630Z,97716.30
2019-01-10T02:04:24.268Z,97716.02
2019-01-10T02:06:52.907Z,97731.55
2019-01-10T02:09:21.629Z,97735.54
2019-01-10T02:11:50.268Z,97736.05
2019-01-10T02:14:19.067Z,97739.55
2019-01-10T02:16:47.707Z,97736.59
2019-01-10T02:19:16.343Z,97740.07
2019-01-10T02:21:45.759Z,97741.95
2019-01-10T02:24:14.871Z,97743.03
2019-01-10T02:26:43.511Z,97749.98
2019-01-10T02:29:12.159Z,97743.59
2019-01-10T02:31:40.812Z,97743.11
2019-01-10T02:34:10.511Z,97743.41
2019-01-10T02:36:39.503Z,97739.88
2019-01-10T02:39:08.141Z,97747.05
2019-01-10T02:41:36.847Z,97741.71
2019-01-10T02:44:05.503Z,97744.93
2019-01-10T02:46:34.130Z,97741.16
2019-01-10T02:49:02.778Z,97744.37
2019-01-10T02:51:31.435Z,97748.36
2019-01-10T02:54:00.099Z,97753.22
2019-01-10T02:56:29.080Z,97751.88
2019-01-10T02:58:57.737Z,97759.12
2019-01-10T03:01:26.449Z,97752.42
2019-01-10T03:03:55.156Z,97749.48
2019-01-10T03:06:24.112Z,97749.47
2019-01-10T03:08:52.812Z,97751.08
2019-01-10T03:11:21.450Z,97754.58
2019-01-10T03:13:50.106Z,97747.06
2019-01-10T03:16:19.076Z,97751.10
2019-01-10T03:18:47.719Z,97745.48
2019-01-10T03:21:16.456Z,97751.96
2019-01-10T03:23:45.086Z,97749.24
2019-01-10T03:26:13.770Z,97758.05
2019-01-10T03:28:42.704Z,97749.70
2019-01-10T03:31:11.345Z,97759.12
2019-01-10T03:33:40.849Z,97756.17
2019-01-10T03:36:09.920Z,97751.88
2019-01-10T03:38:38.553Z,97751.06
2019-01-10T03:41:07.181Z,97751.34
2019-01-10T03:43:35.823Z,97747.84
2019-01-10T03:46:05.611Z,97749.72
2019-01-10T03:48:34.235Z,97751.06
2019-01-10T03:51:02.884Z,97748.92
2019-01-10T03:53:31.511Z,97752.70
2019-01-10T03:56:00.154Z,97753.80
2019-01-10T03:58:28.810Z,97752.98
2019-01-10T04:00:57.450Z,97760.99
2019-01-10T04:03:26.089Z,97765.27
2019-01-10T04:05:54.736Z,97759.91
2019-01-10T04:08:23.370Z,97766.86
2019-01-10T04:10:52.986Z,97767.13
2019-01-10T04:13:21.679Z,97766.59
2019-01-10T04:15:50.305Z,97771.94
2019-01-10T04:18:18.949Z,97771.42
2019-01-10T04:20:47.597Z,97771.41
2019-01-10T04:23:16.223Z,97784.23
2019-01-10T04:25:44.869Z,97785.05
2019-01-10T04:28:13.547Z,97783.98
2019-01-10T04:30:42.179Z,97784.52
2019-01-10T04:33:10.910Z,97790.94
2019-01-10T04:35:39.647Z,97783.70
2019-01-10T04:38:08.288Z,97788.00
2019-01-10T04:40:36.919Z,97793.36
2019-01-10T04:43:05.855Z,97797.12
2019-01-10T04:45:34.494Z,97791.48
2019-01-10T04:48:03.163Z,97797.64
2019-01-10T04:50:32.595Z,97804.88
2019-01-10T04:53:01.233Z,97804.88
2019-01-10T04:55:29.875Z,97806.73
2019-01-10T04:57:58.976Z,97807.80
2019-01-10T05:00:27.996Z,97816.38
2019-01-10T05:02:56.669Z,97810.75
2019-01-10T05:05:25.308Z,97816.11
2019-01-10T05:07:53.944Z,97816.62
2019-01-10T05:10:22.576Z,97825.17
2019-01-10T05:12:51.784Z,97821.45
2019-01-10T05:15:20.417Z,97826.79
2019-01-10T05:17:49.483Z,97831.06
2019-01-10T05:20:19.032Z,97829.43
2019-01-10T05:22:47.872Z,97831.03
2019-01-10T05:25:17.666Z,97825.95
2019-01-10T05:27:46.320Z,97834.78
2019-01-10T05:30:17.001Z,97839.06
2019-01-10T05:32:45.749Z,97835.59
2019-01-10T05:35:14.416Z,97834.53
2019-01-10T05:37:43.199Z,97838.97
2019-01-10T05:40:11.982Z,97847.02
2019-01-10T05:42:40.631Z,97850.72
2019-01-10T05:45:10.181Z,97855.52
2019-01-10T05:47:38.934Z,97853.38
2019-01-10T05:50:08.665Z,97854.44
2019-01-10T05:52:37.454Z,97862.73
2019-01-10T05:55:07.179Z,97864.89
2019-01-10T05:57:36.061Z,97864.35
2019-01-10T06:00:05.565Z,97871.05
2019-01-10T06:02:34.375Z,97864.91
2019-01-10T06:05:03.219Z,97866.23
2019-01-10T06:07:31.879Z,97874.56
2019-01-10T06:10:00.563Z,97879.91
2019-01-10T06:12:30.008Z,97876.97
2019-01-10T06:14:58.972Z,97890.09
2019-01-10T06:17:27.688Z,97892.55
2019-01-10T06:19:56.360Z,97898.42
2019-01-10T06:22:25.133Z,97902.18
2019-01-10T06:24:53.896Z,97907.83
2019-01-10T06:27:22.552Z,97909.67
2019-01-10T06:29:51.231Z,97910.48
2019-01-10T06:32:19.917Z,97920.66
2019-01-10T06:34:48.595Z,97916.91
2019-01-10T06:37:17.343Z,97925.23
2019-01-10T06:39:46.352Z,97926.27
2019-01-10T06:42:15.023Z,97928.72
2019-01-10T06:44:44.681Z,97930.84
2019-01-10T06:47:15.144Z,97942.07
2019-01-10T06:49:43.811Z,97945.05
2019-01-10T06:52:12.971Z,97948.77
2019-01-10T06:54:41.687Z,97951.72
2019-01-10T06:57:10.430Z,97954.16
2019-01-10T06:59:39.501Z,97962.17
2019-01-10T07:02:08.249Z,97969.13
2019-01-10T07:04:36.980Z,97961.91
2019-01-10T07:07:05.634Z,97961.64
2019-01-10T07:09:34.274Z,97964.07
2019-01-10T07:12:02.899Z,97975.30
2019-01-10T07:14:31.606Z,97969.13
2019-01-10T07:17:00.540Z,97967.52
2019-01-10T07:19:45.450Z,97971.02
2019-01-10T07:22:15.009Z,97977.19
2019-01-10T07:24:50.980Z,97980.11
2019-01-10T07:27:19.610Z,97990.31
2019-01-10T07:29:52.771Z,97987.61
2019-01-10T07:32:21.402Z,97987.09
2019-01-10T07:34:50.408Z,97991.36
2019-01-10T07:37:19.060Z,97994.27
2019-01-10T07:39:47.699Z,97989.73
2019-01-10T07:42:16.332Z,97991.34
2019-01-10T07:44:44.976Z,97997.48
2019-01-10T07:47:13.895Z,97999.32
2019-01-10T07:49:42.704Z,97997.45
2019-01-10T07:52:11.397Z,98002.48
2019-01-10T07:54:40.019Z,98008.92
2019-01-10T07:57:08.820Z,98008.36
2019-01-10T07:59:37.543Z,98014.00
2019-01-10T08:02:06.175Z,98013.45
2019-01-10T08:04:34.830Z,98018.52
2019-01-10T08:07:03.470Z,98019.31
2019-01-10T08:09:32.101Z,98017.64
2019-01-10T08:12:00.941Z,98017.06
2019-01-10T08:14:32.788Z,98029.66
2019-01-10T08:17:01.419Z,98030.95
2019-01-10T08:19:30.146Z,98039.50
2019-01-10T08:21:58.798Z,98031.95
2019-01-10T08:24:27.444Z,98038.08
2019-01-10T08:26:56.089Z,98047.16
2019-01-10T08:29:24.756Z,98049.31
2019-01-10T08:31:53.751Z,98046.91
2019-01-10T08:34:23.576Z,98059.76
2019-01-10T08:36:52.222Z,98053.85
2019-01-10T08:39:20.876Z,98055.78
2019-01-10T08:41:49.554Z,98053.07
2019-01-10T08:44:18.295Z,98055.25
2019-01-10T08:46:47.024Z,98060.41
2019-01-10T08:49:15.947Z,98063.08
2019-01-10T08:51:44.615Z,98065.42
2019-01-10T08:54:13.359Z,98071.91
2019-01-10T08:56:41.991Z,98070.68
2019-01-10T08:59:10.641Z,98064.69
2019-01-10T09:01:39.554Z,98069.75
2019-01-10T09:04:08.172Z,98064.48
2019-01-10T09:06:36.809Z,98066.99
2019-01-10T09:09:07.320Z,98059.68
2019-01-10T09:11:35.943Z,98067.94
2019-01-10T09:14:04.764Z,98070.20
2019-01-10T09:16:33.538Z,98071.43
2019-01-10T09:19:02.528Z,98072.71
2019-01-10T09:21:31.195Z,98078.63
2019-01-10T09:24:00.019Z,98070.09
2019-01-10T09:26:37.514Z,98082.92
2019-01-10T09:28:59.197Z,98087.98
2019-01-10T09:31:27.902Z,98088.78
2019-01-10T09:33:58.091Z,98087.69
2019-01-10T09:36:26.932Z,98092.67
2019-01-10T09:38:55.557Z,98092.46
2019-01-10T09:41:24.218Z,98099.25
2019-01-10T09:43:52.856Z,98099.11
2019-01-10T09:46:21.487Z,98103.89
2019-01-10T09:48:50.152Z,98118.46
2019-01-10T09:51:18.886Z,98113.09
2019-01-10T09:53:47.563Z,98113.34
2019-01-10T09:56:16.201Z,98119.41
2019-01-10T09:58:44.854Z,98117.34
2019-01-10T10:01:13.535Z,98122.43
2019-01-10T10:03:42.193Z,98120.86
2019-01-10T10:06:10.845Z,98123.61
2019-01-10T10:08:39.520Z,98126.42
2019-01-10T10:11:08.557Z,98123.30
2019-01-10T10:13:37.208Z,98121.56
2019-01-10T10:16:05.845Z,98121.67
2019-01-10T10:18:34.479Z,98125.84
2019-01-10T10:21:03.186Z,98126.65
2019-01-10T10:23:31.803Z,98124.54
2019-01-10T10:26:00.489Z,98123.23
2019-01-10T10:28:29.471Z,98125.09
2019-01-10T10:30:58.131Z,98123.63
2019-01-10T10:33:26.767Z,98129.92
2019-01-10T10:35:55.416Z,98138.21
2019-01-10T10:38:24.412Z,98135.29
2019-01-10T10:40:53.044Z,98128.19
2019-01-10T10:43:21.716Z,98133.98
2019-01-10T10:45:50.416Z,98140.27
2019-01-10T10:48:19.058Z,98139.05
2019-01-10T10:50:47.839Z,98137.19
2019-01-10T10:53:16.478Z,98138.77
2019-01-10T10:55:45.234Z,98137.48
2019-01-10T10:58:14.112Z,98139.81
2019-01-10T11:00:42.818Z,98134.60
2019-01-10T11:03:11.876Z,98142.23
2019-01-10T11:05:40.646Z,98142.58
2019-01-10T11:08:09.565Z,98147.12
2019-01-10T11:10:38.280Z,98149.02
2019-01-10T11:13:07.072Z,98155.67
2019-01-10T11:15:35.706Z,98159.78
2019-01-10T11:18:04.416Z,98163.03
2019-01-10T11:20:33.419Z,98161.47
2019-01-10T11:23:10.147Z,98151.45
2019-01-10T11:25:32.519Z,98157.35
2019-01-10T11:28:01.235Z,98160.17
2019-01-10T11:30:29.864Z,98162.70
2019-01-10T11:32:58.513Z,98166.39
2019-01-10T11:35:27.231Z,98156.84
2019-01-10T11:37:55.949Z,98160.66
2019-01-10T11:40:24.603Z,98158.27
2019-01-10T11:42:53.222Z,98162.05
2019-01-10T11:45:23.089Z,98166.12
2019-01-10T11:47:51.816Z,98157.42
2019-01-10T11:50:20.868Z,98162.17
2019-01-10T11:52:49.820Z,98163.52
2019-01-10T11:55:18.464Z,98167.75
2019-01-10T11:57:47.171Z,98158.06
2019-01-10T12:00:20.188Z,98169.12
2019-01-10T12:02:48.842Z,98163.03
2019-01-10T12:05:17.560Z,98167.06
2019-01-10T12:07:46.237Z,98163.83
2019-01-10T12:10:14.881Z,98162.07
2019-01-10T12:12:44.075Z,98164.22
2019-01-10T12:15:12.810Z,98161.68
2019-01-10T12:17:41.444Z,98171.12
2019-01-10T12:20:10.768Z,98171.75
2019-01-10T12:22:39.419Z,98164.59
2019-01-10T12:25:09.371Z,98163.36
2019-01-10T12:27:38.319Z,98171.12
2019-01-10T12:30:08.376Z,98166.55
2019-01-10T12:32:37.022Z,98165.45
2019-01-10T12:35:05.841Z,98161.88
2019-01-10T12:37:34.484Z,98166.77
2019-01-10T12:40:03.123Z,98171.20
2019-01-10T12:42:31.929Z,98169.59
2019-01-10T12:45:00.547Z,98162.48
2019-01-10T12:47:29.187Z,98173.47
2019-01-10T12:49:57.815Z,98175.87
2019-01-10T12:52:34.837Z,98171.26
2019-01-10T12:54:56.870Z,98173.27
2019-01-10T12:57:25.603Z,98175.89
2019-01-10T12:59:54.235Z,98173.95
2019-01-10T13:02:22.938Z,98177.44
2019-01-10T13:04:51.582Z,98179.87
2019-01-10T13:07:20.386Z,98187.91
2019-01-10T13:09:49.032Z,98185.30
2019-01-10T13:12:17.684Z,98185.66
2019-01-10T13:14:46.316Z,98181.55
2019-01-10T13:17:14.946Z,98192.75
2019-01-10T13:19:43.592Z,98195.39
2019-01-10T13:22:12.291Z,98200.48
2019-01-10T13:24:40.930Z,98205.53
2019-01-10T13:27:09.577Z,98207.63
2019-01-10T13:29:38.272Z,98214.62
2019-01-10T13:32:07.080Z,98215.72
2019-01-10T13:34:36.270Z,98212.72
2019-01-10T13:37:05.103Z,98215.63
2019-01-10T13:39:33.891Z,98206.97
2019-01-10T13:42:02.539Z,98210.13
2019-01-10T13:44:31.251Z,98213.36
2019-01-10T13:46:59.887Z,98213.64
2019-01-10T13:49:28.533Z,98223.32
2019-01-10T13:51:57.163Z,98225.69
2019-01-10T13:54:25.943Z,98224.01
2019-01-10T13:56:54.583Z,98220.34
2019-01-10T13:59:23.792Z,98223.28
2019-01-10T14:01:52.544Z,98226.80
2019-01-10T14:04:21.178Z,98228.41
2019-01-10T14:06:49.874Z,98227.95
2019-01-10T14:09:18.514Z,98229.55
2019-01-10T14:11:47.382Z,98233.63
2019-01-10T14:14:16.047Z,98229.95
2019-01-10T14:16:44.674Z,98242.06
2019-01-10T14:19:13.320Z,98234.28
2019-01-10T14:21:46.594Z,98238.87
2019-01-10T14:24:12.284Z,98239.67
2019-01-10T14:26:41.277Z,98246.89
2019-01-10T14:29:09.905Z,98240.41
2019-01-10T14:31:38.536Z,98237.72
2019-01-10T14:34:13.980Z,98242.64
2019-01-10T14:36:38.695Z,98242.31
2019-01-10T14:39:08.407Z,98247.50
2019-01-10T14:41:37.076Z,98248.08
2019-01-10T14:44:05.713Z,98255.36
2019-01-10T14:46:34.367Z,98260.20
2019-01-10T14:49:02.999Z,98268.88
2019-01-10T14:51:31.633Z,98266.19
2019-01-10T14:54:00.393Z,98261.08
2019-01-10T14:56:29.034Z,98268.05
2019-01-10T14:58:57.679Z,98269.44
2019-01-10T15:01:26.335Z,98271.58
2019-01-10T15:03:54.973Z,98280.75
2019-01-10T15:06:23.967Z,98287.19
2019-01-10T15:08:52.607Z,98288.84
2019-01-10T15:11:21.238Z,98289.92
2019-01-10T15:13:49.878Z,98293.97
2019-01-10T15:16:18.525Z,98300.94
2019-01-10T15:18:47.166Z,98297.73
2019-01-10T15:21:15.815Z,98305.80
2019-01-10T15:23:44.450Z,98315.48
2019-01-10T15:26:13.391Z,98305.03
2019-01-10T15:28:42.814Z,98311.73
2019-01-10T15:31:11.693Z,98312.03
2019-01-10T15:33:42.439Z,98313.91
2019-01-10T15:36:11.206Z,98316.85
2019-01-10T15:38:40.619Z,98324.11
2019-01-10T15:41:09.245Z,98322.22
2019-01-10T15:43:37.890Z,98324.65
2019-01-10T15:46:06.511Z,98331.63
2019-01-10T15:48:35.503Z,98326.81
2019-01-10T15:51:04.231Z,98330.84
2019-01-10T15:53:32.876Z,98338.61
2019-01-10T15:56:01.519Z,98340.22
2019-01-10T15:58:30.181Z,98339.69
2019-01-10T16:00:58.822Z,98345.59
2019-01-10T16:03:27.533Z,98352.02
2019-01-10T16:05:56.349Z,98351.23
2019-01-10T16:08:24.978Z,98353.38
2019-01-10T16:10:53.608Z,98363.55
2019-01-10T16:13:22.259Z,98366.50
2019-01-10T16:15:50.920Z,98366.78
2019-01-10T16:18:19.550Z,98373.72
2019-01-10T16:20:48.202Z,98377.48
2019-01-10T16:23:16.846Z,98380.69
2019-01-10T16:25:45.506Z,98387.66
2019-01-10T16:28:14.169Z,98390.88
2019-01-10T16:30:42.887Z,98390.08
2019-01-10T16:33:11.857Z,98390.34
2019-01-10T16:35:40.941Z,98393.83
2019-01-10T16:38:09.576Z,98395.70
2019-01-10T16:40:38.507Z,98394.09
2019-01-10T16:43:11.864Z,98398.11
2019-01-10T16:45:38.724Z,98401.05
2019-01-10T16:48:07.353Z,98402.94
2019-01-10T16:50:36.047Z,98410.70
2019-01-10T16:53:04.767Z,98413.39
2019-01-10T16:55:34.165Z,98420.36
2019-01-10T16:58:03.317Z,98417.14
2019-01-10T17:00:32.763Z,98414.73
2019-01-10T17:03:01.503Z,98416.59
2019-01-10T17:05:30.136Z,98426.24
2019-01-10T17:07:58.774Z,98430.48
2019-01-10T17:10:27.442Z,98423.02
2019-01-10T17:12:56.150Z,98432.94
2019-01-10T17:15:24.815Z,98434.55
2019-01-10T17:17:53.591Z,98437.22
2019-01-10T17:20:23.128Z,98441.73
2019-01-10T17:22:51.795Z,98453.52
2019-01-10T17:25:20.584Z,98456.19
2019-01-10T17:27:49.326Z,98456.52
2019-01-10T17:30:28.022Z,98460.76
2019-01-10T17:32:56.732Z,98463.96
2019-01-10T17:35:26.637Z,98474.42
2019-01-10T17:37:55.635Z,98468.52
2019-01-10T17:40:24.412Z,98469.84
2019-01-10T17:42:53.600Z,98470.91
2019-01-10T17:45:23.428Z,98475.47
2019-01-10T17:47:52.575Z,98480.30
2019-01-10T17:50:21.400Z,98475.73
2019-01-10T17:52:50.203Z,98482.95
2019-01-10T17:55:18.939Z,98476.23
2019-01-10T17:57:48.119Z,98480.78
2019-01-10T18:00:18.507Z,98480.79
2019-01-10T18:02:47.439Z,98476.53
2019-01-10T18:05:16.204Z,98477.89
2019-01-10T18:07:45.219Z,98478.98
2019-01-10T18:10:14.959Z,98483.25
2019-01-10T18:12:44.880Z,98486.14
2019-01-10T18:15:14.594Z,98489.64
2019-01-10T18:17:43.254Z,98496.05
2019-01-10T18:20:13.800Z,98497.11
2019-01-10T18:22:42.440Z,98495.20
2019-01-10T18:25:11.327Z,98501.34
2019-01-10T18:27:40.479Z,98499.27
2019-01-10T18:30:11.598Z,98503.03
2019-01-10T18:32:40.358Z,98495.27
2019-01-10T18:35:09.882Z,98497.92
2019-01-10T18:37:38.682Z,98504.06
2019-01-10T18:40:07.944Z,98502.42
2019-01-10T18:42:36.678Z,98510.71
2019-01-10T18:45:05.780Z,98517.67
2019-01-10T18:47:34.778Z,98515.81
2019-01-10T18:50:03.898Z,98521.48
2019-01-10T18:52:32.640Z,98524.38
2019-01-10T18:55:01.293Z,98529.13
2019-01-10T18:57:30.057Z,98531.24
2019-01-10T18:59:59.898Z,98531.76
2019-01-10T19:02:28.748Z,98538.37
2019-01-10T19:04:57.398Z,98530.92
2019-01-10T19:07:26.133Z,98541.57
2019-01-10T19:09:54.795Z,98538.00
2019-01-10T19:12:23.567Z,98541.75
2019-01-10T19:14:52.390Z,98545.74
2019-01-10T19:17:26.054Z,98543.03
2019-01-10T19:19:51.503Z,98543.05
2019-01-10T19:22:20.451Z,98557.20
2019-01-10T19:24:49.287Z,98555.27
2019-01-10T19:27:18.135Z,98549.06
2019-01-10T19:29:46.875Z,98551.23
2019-01-10T19:32:15.594Z,98558.34
2019-01-10T19:34:44.446Z,98556.48
2019-01-10T19:37:13.382Z,98560.20
2019-01-10T19:39:42.030Z,98561.45
2019-01-10T19:42:12.715Z,98564.85
2019-01-10T19:44:41.194Z,98563.95
2019-01-10T19:47:09.920Z,98560.95
2019-01-10T19:49:38.626Z,98560.24
2019-01-10T19:52:07.284Z,98568.86
2019-01-10T19:54:36.034Z,98566.19
2019-01-10T19:57:04.766Z,98575.27
2019-01-10T19:59:33.632Z,98577.22
2019-01-10T20:02:02.623Z,98581.27
2019-01-10T20:04:31.328Z,98586.64
2019-01-10T20:06:59.999Z,98590.31
2019-01-10T20:09:30.092Z,98593.73
2019-01-10T20:11:59.476Z,98592.40
2019-01-10T20:14:28.369Z,98592.98
2019-01-10T20:16:57.042Z,98588.45
2019-01-10T20:19:25.719Z,98593.18
2019-01-10T20:21:54.675Z,98598.51
2019-01-10T20:24:23.465Z,98592.91
2019-01-10T20:26:52.508Z,98595.23
2019-01-10T20:29:22.127Z,98592.55
2019-01-10T20:31:51.059Z,98594.17
2019-01-10T20:34:20.006Z,98597.63
2019-01-10T20:36:48.715Z,98599.44
2019-01-10T20:39:18.065Z,98593.52
2019-01-10T20:41:47.139Z,98597.16
2019-01-10T20:44:16.918Z,98596.83
2019-01-10T20:46:45.924Z,98596.50
2019-01-10T20:49:14.648Z,98596.50
2019-01-10T20:51:43.729Z,98598.36
2019-01-10T20:54:12.620Z,98602.40
2019-01-10T20:56:41.650Z,98600.00
2019-01-10T20:59:10.592Z,98608.52
2019-01-10T21:01:39.252Z,98605.09
2019-01-10T21:04:07.907Z,98602.40
2019-01-10T21:06:37.210Z,98602.59
2019-01-10T21:09:12.842Z,98603.64
2019-01-10T21:11:37.996Z,98604.95
2019-01-10T21:14:06.645Z,98604.92
2019-01-10T21:16:35.375Z,98601.92
2019-01-10T21:19:04.567Z,98605.09
2019-01-10T21:21:33.445Z,98611.48
2019-01-10T21:24:02.361Z,98605.80
2019-01-10T21:26:31.135Z,98618.28
2019-01-10T21:29:00.095Z,98618.50
2019-01-10T21:31:29.179Z,98623.78
2019-01-10T21:33:59.887Z,98618.12
2019-01-10T21:36:28.788Z,98618.66
2019-01-10T21:38:58.022Z,98622.41
2019-01-10T21:41:27.879Z,98621.78
2019-01-10T21:43:57.617Z,98624.20
2019-01-10T21:46:26.667Z,98626.56
2019-01-10T21:48:55.651Z,98627.09
2019-01-10T21:51:24.370Z,98631.13
2019-01-10T21:53:54.542Z,98637.67
2019-01-10T21:56:24.654Z,98643.94
2019-01-10T21:58:53.368Z,98639.06
2019-01-10T22:01:22.082Z,98636.88
2019-01-10T22:03:50.746Z,98631.51
2019-01-10T22:06:19.494Z,98638.25
2019-01-10T22:08:48.129Z,98637.16
2019-01-10T22:11:16.816Z,98633.41
2019-01-10T22:13:45.940Z,98635.02
2019-01-10T22:16:14.580Z,98640.36
2019-01-10T22:18:43.312Z,98632.03
2019-01-10T22:21:11.972Z,98631.86
2019-01-10T22:23:40.655Z,98634.25
2019-01-10T22:26:09.784Z,98636.64
2019-01-10T22:28:38.576Z,98637.88
2019-01-10T22:31:08.195Z,98637.31
2019-01-10T22:33:37.189Z,98638.92
2019-01-10T22:36:06.023Z,98632.67
2019-01-10T22:38:34.662Z,98634.53
2019-01-10T22:41:03.323Z,98631.66
2019-01-10T22:43:31.961Z,98636.47
2019-01-10T22:46:00.917Z,98634.30
2019-01-10T22:48:29.657Z,98634.26
2019-01-10T22:50:58.306Z,98636.72
2019-01-10T22:53:26.950Z,98634.64
2019-01-10T22:55:55.978Z,98635.98
2019-01-10T22:58:24.998Z,98646.30
2019-01-10T23:01:11.300Z,98636.33
2019-01-10T23:03:41.701Z,98635.59
2019-01-10T23:06:10.420Z,98640.02
2019-01-10T23:08:42.667Z,98633.20
2019-01-10T23:11:18.636Z,98635.66
2019-01-10T23:14:03.297Z,98644.48
2019-01-10T23:16:32.976Z,98642.33
2019-01-10T23:19:01.796Z,98650.88
2019-01-10T23:21:31.498Z,98649.30
2019-01-10T23:24:07.459Z,98647.74
2019-01-10T23:26:36.215Z,98645.11
2019-01-10T23:29:04.994Z,98645.88
2019-01-10T23:31:33.649Z,98647.19
2019-01-10T23:34:07.375Z,98652.24
2019-01-10T23:36:36.047Z,98644.76
2019-01-10T23:39:15.145Z,98652.73
2019-01-10T23:41:43.991Z,98654.63
2019-01-10T23:44:12.645Z,98661.55
2019-01-10T23:46:41.345Z,98655.65
2019-01-10T23:49:10.061Z,98654.38
2019-01-10T23:51:39.095Z,98661.27
2019-01-10T23:54:07.807Z,98661.30
2019-01-10T23:56:36.500Z,98657.52
2019-01-10T23:59:06.188Z,98656.95
